sensor_id;sensor_type;location;lat;lon;timestamp;pressure;altitude;pressure_sealevel;temperature;humidity
72959;BME280;60008;50.826;6.896;2023-08-12T00:01:19;101314.34;;;21.79;100.00
72959;BME280;60008;50.826;6.896;2023-08-12T00:04:12;101303.53;;;21.55;100.00
72959;BME280;60008;50.826;6.896;2023-08-12T00:07:03;101313.44;;;21.61;100.00
72959;BME280;60008;50.826;6.896;2023-08-12T00:09:55;101316.91;;;21.43;100.00
72959;BME280;60008;50.826;6.896;2023-08-12T00:12:41;101320.03;;;21.40;100.00
72959;BME280;60008;50.826;6.896;2023-08-12T00:15:33;101314.47;;;21.35;100.00
72959;BME280;60008;50.826;6.896;2023-08-12T00:18:19;101321.03;;;21.46;100.00
72959;BME280;60008;50.826;6.896;2023-08-12T00:21:10;101314.69;;;21.58;100.00
72959;BME280;60008;50.826;6.896;2023-08-12T00:24:01;101301.66;;;21.55;100.00
72959;BME280;60008;50.826;6.896;2023-08-12T00:26:52;101316.34;;;21.66;100.00
72959;BME280;60008;50.826;6.896;2023-08-12T00:29:37;101318.69;;;21.80;100.00
72959;BME280;60008;50.826;6.896;2023-08-12T00:32:28;101316.59;;;21.82;100.00
72959;BME280;60008;50.826;6.896;2023-08-12T00:35:13;101304.16;;;21.57;100.00
72959;BME280;60008;50.826;6.896;2023-08-12T00:38:04;101303.63;;;21.42;100.00
72959;BME280;60008;50.826;6.896;2023-08-12T00:40:50;101308.69;;;21.63;100.00
72959;BME280;60008;50.826;6.896;2023-08-12T00:43:41;101292.81;;;21.73;100.00
72959;BME280;60008;50.826;6.896;2023-08-12T00:46:33;101288.56;;;21.83;100.00
72959;BME280;60008;50.826;6.896;2023-08-12T00:49:18;101294.38;;;21.87;100.00
72959;BME280;60008;50.826;6.896;2023-08-12T00:52:14;101295.13;;;21.69;100.00
72959;BME280;60008;50.826;6.896;2023-08-12T00:55:00;101281.97;;;21.55;100.00
72959;BME280;60008;50.826;6.896;2023-08-12T00:57:51;101284.28;;;21.45;100.00
72959;BME280;60008;50.826;6.896;2023-08-12T01:00:37;101277.63;;;21.47;100.00
72959;BME280;60008;50.826;6.896;2023-08-12T01:03:36;101282.28;;;21.33;100.00
72959;BME280;60008;50.826;6.896;2023-08-12T01:06:28;101286.34;;;21.49;100.00
72959;BME280;60008;50.826;6.896;2023-08-12T01:09:15;101274.47;;;21.57;100.00
72959;BME280;60008;50.826;6.896;2023-08-12T01:12:13;101256.78;;;21.61;100.00
72959;BME280;60008;50.826;6.896;2023-08-12T01:15:14;101252.00;;;21.63;100.00
72959;BME280;60008;50.826;6.896;2023-08-12T01:18:07;101245.28;;;21.72;100.00
72959;BME280;60008;50.826;6.896;2023-08-12T01:20:53;101244.34;;;21.35;100.00
72959;BME280;60008;50.826;6.896;2023-08-12T01:23:44;101251.72;;;21.15;100.00
72959;BME280;60008;50.826;6.896;2023-08-12T01:26:30;101242.44;;;21.11;100.00
72959;BME280;60008;50.826;6.896;2023-08-12T01:29:21;101242.31;;;21.30;100.00
72959;BME280;60008;50.826;6.896;2023-08-12T01:32:32;101240.38;;;21.38;100.00
72959;BME280;60008;50.826;6.896;2023-08-12T01:35:23;101227.50;;;21.40;100.00
72959;BME280;60008;50.826;6.896;2023-08-12T01:38:17;101235.44;;;21.59;100.00
72959;BME280;60008;50.826;6.896;2023-08-12T01:41:12;101221.63;;;21.49;100.00
72959;BME280;60008;50.826;6.896;2023-08-12T01:43:58;101230.06;;;21.53;100.00
72959;BME280;60008;50.826;6.896;2023-08-12T01:46:49;101227.56;;;21.58;100.00
72959;BME280;60008;50.826;6.896;2023-08-12T01:49:35;101215.88;;;21.64;100.00
72959;BME280;60008;50.826;6.896;2023-08-12T01:52:26;101209.38;;;21.71;100.00
72959;BME280;60008;50.826;6.896;2023-08-12T01:55:11;101220.22;;;21.65;100.00
72959;BME280;60008;50.826;6.896;2023-08-12T01:58:03;101207.50;;;21.72;100.00
72959;BME280;60008;50.826;6.896;2023-08-12T02:00:49;101214.25;;;21.63;100.00
72959;BME280;60008;50.826;6.896;2023-08-12T02:03:40;101209.19;;;21.66;100.00
72959;BME280;60008;50.826;6.896;2023-08-12T02:06:32;101219.47;;;21.58;100.00
72959;BME280;60008;50.826;6.896;2023-08-12T02:09:24;101219.47;;;21.58;100.00
72959;BME280;60008;50.826;6.896;2023-08-12T02:12:09;101222.78;;;21.60;100.00
72959;BME280;60008;50.826;6.896;2023-08-12T02:15:01;101212.56;;;21.62;100.00
72959;BME280;60008;50.826;6.896;2023-08-12T02:17:47;101213.72;;;21.72;100.00
72959;BME280;60008;50.826;6.896;2023-08-12T02:20:40;101206.63;;;21.53;100.00
72959;BME280;60008;50.826;6.896;2023-08-12T02:23:32;101217.50;;;21.47;100.00
72959;BME280;60008;50.826;6.896;2023-08-12T02:26:17;101206.75;;;21.40;100.00
72959;BME280;60008;50.826;6.896;2023-08-12T02:29:09;101207.84;;;21.32;100.00
72959;BME280;60008;50.826;6.896;2023-08-12T02:31:54;101209.72;;;21.32;100.00
72959;BME280;60008;50.826;6.896;2023-08-12T02:34:46;101202.03;;;21.35;100.00
72959;BME280;60008;50.826;6.896;2023-08-12T02:37:31;101205.59;;;21.29;100.00
72959;BME280;60008;50.826;6.896;2023-08-12T02:40:23;101210.81;;;21.24;100.00
72959;BME280;60008;50.826;6.896;2023-08-12T02:43:08;101200.78;;;21.31;100.00
72959;BME280;60008;50.826;6.896;2023-08-12T02:46:01;101202.38;;;21.39;100.00
72959;BME280;60008;50.826;6.896;2023-08-12T02:48:53;101199.59;;;21.27;100.00
72959;BME280;60008;50.826;6.896;2023-08-12T02:51:38;101197.69;;;21.28;100.00
72959;BME280;60008;50.826;6.896;2023-08-12T02:54:29;101188.44;;;21.17;100.00
72959;BME280;60008;50.826;6.896;2023-08-12T02:57:14;101203.63;;;21.12;100.00
72959;BME280;60008;50.826;6.896;2023-08-12T03:00:06;101196.38;;;21.12;100.00
72959;BME280;60008;50.826;6.896;2023-08-12T03:02:58;101192.25;;;21.10;100.00
72959;BME280;60008;50.826;6.896;2023-08-12T03:05:50;101185.75;;;21.17;100.00
72959;BME280;60008;50.826;6.896;2023-08-12T03:08:48;101182.63;;;21.20;100.00
72959;BME280;60008;50.826;6.896;2023-08-12T03:11:40;101177.84;;;21.22;100.00
72959;BME280;60008;50.826;6.896;2023-08-12T03:14:26;101170.81;;;21.21;100.00
72959;BME280;60008;50.826;6.896;2023-08-12T03:17:17;101162.91;;;21.20;100.00
72959;BME280;60008;50.826;6.896;2023-08-12T03:20:02;101169.56;;;20.86;100.00
72959;BME280;60008;50.826;6.896;2023-08-12T03:22:56;101160.34;;;21.07;100.00
72959;BME280;60008;50.826;6.896;2023-08-12T03:25:47;101158.78;;;21.17;100.00
72959;BME280;60008;50.826;6.896;2023-08-12T03:28:33;101147.53;;;20.96;100.00
72959;BME280;60008;50.826;6.896;2023-08-12T03:31:24;101152.03;;;21.02;100.00
72959;BME280;60008;50.826;6.896;2023-08-12T03:34:09;101142.69;;;21.04;100.00
72959;BME280;60008;50.826;6.896;2023-08-12T03:37:00;101148.94;;;20.98;100.00
72959;BME280;60008;50.826;6.896;2023-08-12T03:39:52;101139.00;;;20.99;100.00
72959;BME280;60008;50.826;6.896;2023-08-12T03:42:44;101142.19;;;20.89;100.00
72959;BME280;60008;50.826;6.896;2023-08-12T03:45:30;101126.66;;;20.85;100.00
72959;BME280;60008;50.826;6.896;2023-08-12T03:48:21;101126.91;;;20.83;100.00
72959;BME280;60008;50.826;6.896;2023-08-12T03:51:06;101123.19;;;20.77;100.00
72959;BME280;60008;50.826;6.896;2023-08-12T03:53:58;101117.91;;;20.64;100.00
72959;BME280;60008;50.826;6.896;2023-08-12T03:56:43;101118.75;;;20.65;100.00
72959;BME280;60008;50.826;6.896;2023-08-12T03:59:34;101119.19;;;20.55;100.00
72959;BME280;60008;50.826;6.896;2023-08-12T04:02:32;101112.19;;;20.54;100.00
72959;BME280;60008;50.826;6.896;2023-08-12T04:05:31;101110.25;;;20.61;100.00
72959;BME280;60008;50.826;6.896;2023-08-12T04:08:23;101116.50;;;20.55;100.00
72959;BME280;60008;50.826;6.896;2023-08-12T04:11:15;101103.47;;;20.52;100.00
72959;BME280;60008;50.826;6.896;2023-08-12T04:14:07;101099.34;;;20.50;100.00
72959;BME280;60008;50.826;6.896;2023-08-12T04:16:59;101104.53;;;20.51;100.00
72959;BME280;60008;50.826;6.896;2023-08-12T04:19:51;101111.63;;;20.39;100.00
72959;BME280;60008;50.826;6.896;2023-08-12T04:22:37;101109.75;;;20.46;100.00
72959;BME280;60008;50.826;6.896;2023-08-12T04:25:32;101106.00;;;20.47;100.00
72959;BME280;60008;50.826;6.896;2023-08-12T04:28:23;101110.50;;;20.53;100.00
72959;BME280;60008;50.826;6.896;2023-08-12T04:31:14;101112.34;;;20.59;100.00
72959;BME280;60008;50.826;6.896;2023-08-12T04:33:59;101094.69;;;20.63;100.00
72959;BME280;60008;50.826;6.896;2023-08-12T04:36:50;101087.59;;;20.69;100.00
72959;BME280;60008;50.826;6.896;2023-08-12T04:39:41;101083.63;;;20.78;100.00
72959;BME280;60008;50.826;6.896;2023-08-12T04:42:27;101084.06;;;20.75;100.00
72959;BME280;60008;50.826;6.896;2023-08-12T04:45:18;101079.09;;;20.72;100.00
72959;BME280;60008;50.826;6.896;2023-08-12T04:48:04;101076.28;;;20.85;100.00
72959;BME280;60008;50.826;6.896;2023-08-12T04:50:55;101067.22;;;20.79;100.00
72959;BME280;60008;50.826;6.896;2023-08-12T04:53:51;101067.09;;;20.93;100.00
72959;BME280;60008;50.826;6.896;2023-08-12T04:56:37;101065.09;;;21.13;100.00
72959;BME280;60008;50.826;6.896;2023-08-12T04:59:28;101066.19;;;21.30;100.00
72959;BME280;60008;50.826;6.896;2023-08-12T05:02:13;101062.66;;;21.29;100.00
72959;BME280;60008;50.826;6.896;2023-08-12T05:05:12;101062.63;;;21.36;100.00
72959;BME280;60008;50.826;6.896;2023-08-12T05:07:57;101061.69;;;21.24;100.00
72959;BME280;60008;50.826;6.896;2023-08-12T05:10:49;101062.44;;;21.31;100.00
72959;BME280;60008;50.826;6.896;2023-08-12T05:13:40;101065.66;;;21.21;100.00
72959;BME280;60008;50.826;6.896;2023-08-12T05:16:25;101061.69;;;21.24;100.00
72959;BME280;60008;50.826;6.896;2023-08-12T05:19:24;101069.09;;;21.28;100.00
72959;BME280;60008;50.826;6.896;2023-08-12T05:22:22;101068.34;;;21.21;100.00
72959;BME280;60008;50.826;6.896;2023-08-12T05:25:14;101073.31;;;21.24;100.00
72959;BME280;60008;50.826;6.896;2023-08-12T05:28:06;101079.19;;;21.15;100.00
72959;BME280;60008;50.826;6.896;2023-08-12T05:30:58;101082.66;;;21.22;100.00
72959;BME280;60008;50.826;6.896;2023-08-12T05:33:50;101087.06;;;21.16;100.00
72959;BME280;60008;50.826;6.896;2023-08-12T05:36:36;101081.38;;;21.24;100.00
72959;BME280;60008;50.826;6.896;2023-08-12T05:39:27;101094.19;;;21.04;100.00
72959;BME280;60008;50.826;6.896;2023-08-12T05:42:12;101100.16;;;21.13;100.00
72959;BME280;60008;50.826;6.896;2023-08-12T05:45:05;101108.25;;;21.13;100.00
72959;BME280;60008;50.826;6.896;2023-08-12T05:47:52;101113.88;;;21.05;100.00
72959;BME280;60008;50.826;6.896;2023-08-12T05:50:45;101107.66;;;21.04;100.00
72959;BME280;60008;50.826;6.896;2023-08-12T05:53:36;101105.81;;;20.98;100.00
72959;BME280;60008;50.826;6.896;2023-08-12T05:56:28;101102.94;;;21.00;100.00
72959;BME280;60008;50.826;6.896;2023-08-12T05:59:13;101114.25;;;20.84;100.00
72959;BME280;60008;50.826;6.896;2023-08-12T06:02:05;101113.81;;;20.55;100.00
72959;BME280;60008;50.826;6.896;2023-08-12T06:04:57;101117.91;;;20.64;100.00
72959;BME280;60008;50.826;6.896;2023-08-12T06:07:49;101105.13;;;20.53;100.00
72959;BME280;60008;50.826;6.896;2023-08-12T06:10:41;101098.41;;;20.38;100.00
72959;BME280;60008;50.826;6.896;2023-08-12T06:13:32;101094.03;;;20.37;100.00
72959;BME280;60008;50.826;6.896;2023-08-12T06:16:17;101091.59;;;20.29;100.00
72959;BME280;60008;50.826;6.896;2023-08-12T06:19:08;101110.91;;;20.12;100.00
72959;BME280;60008;50.826;6.896;2023-08-12T06:21:53;101103.03;;;20.24;100.00
72959;BME280;60008;50.826;6.896;2023-08-12T06:24:44;101091.19;;;20.25;100.00
72959;BME280;60008;50.826;6.896;2023-08-12T06:27:29;101093.47;;;20.22;100.00
72959;BME280;60008;50.826;6.896;2023-08-12T06:30:21;101080.59;;;20.30;100.00
72959;BME280;60008;50.826;6.896;2023-08-12T06:33:14;101059.72;;;20.26;100.00
72959;BME280;60008;50.826;6.896;2023-08-12T06:35:59;101044.63;;;20.18;100.00
72959;BME280;60008;50.826;6.896;2023-08-12T06:38:52;101037.31;;;20.32;100.00
72959;BME280;60008;50.826;6.896;2023-08-12T06:41:43;101047.50;;;20.16;100.00
72959;BME280;60008;50.826;6.896;2023-08-12T06:44:35;101061.31;;;20.33;100.00
72959;BME280;60008;50.826;6.896;2023-08-12T06:47:26;101061.28;;;20.46;100.00
72959;BME280;60008;50.826;6.896;2023-08-12T06:50:18;101056.69;;;20.78;100.00
72959;BME280;60008;50.826;6.896;2023-08-12T06:53:09;101033.41;;;20.84;100.00
72959;BME280;60008;50.826;6.896;2023-08-12T06:56:01;101031.97;;;21.06;100.00
72959;BME280;60008;50.826;6.896;2023-08-12T06:58:46;101016.88;;;20.98;100.00
72959;BME280;60008;50.826;6.896;2023-08-12T07:01:37;101011.97;;;20.95;100.00
72959;BME280;60008;50.826;6.896;2023-08-12T07:04:28;101001.19;;;20.95;100.00
72959;BME280;60008;50.826;6.896;2023-08-12T07:07:20;101023.72;;;21.01;100.00
72959;BME280;60008;50.826;6.896;2023-08-12T07:10:06;101021.03;;;21.01;100.00
72959;BME280;60008;50.826;6.896;2023-08-12T07:12:57;101018.13;;;21.02;100.00
72959;BME280;60008;50.826;6.896;2023-08-12T07:15:42;101024.66;;;21.13;100.00
72959;BME280;60008;50.826;6.896;2023-08-12T07:18:33;101039.81;;;21.50;100.00
72959;BME280;60008;50.826;6.896;2023-08-12T07:21:19;101043.88;;;21.41;100.00
72959;BME280;60008;50.826;6.896;2023-08-12T07:24:11;101026.56;;;21.67;100.00
72959;BME280;60008;50.826;6.896;2023-08-12T07:26:55;101025.06;;;21.53;100.00
72959;BME280;60008;50.826;6.896;2023-08-12T07:29:51;101032.50;;;21.57;100.00
72959;BME280;60008;50.826;6.896;2023-08-12T07:32:42;101026.09;;;21.70;100.00
72959;BME280;60008;50.826;6.896;2023-08-12T07:35:34;101009.75;;;22.01;100.00
72959;BME280;60008;50.826;6.896;2023-08-12T07:38:25;101014.78;;;22.27;100.00
72959;BME280;60008;50.826;6.896;2023-08-12T07:41:17;101001.03;;;22.70;100.00
72959;BME280;60008;50.826;6.896;2023-08-12T07:44:09;100999.38;;;22.81;100.00
72959;BME280;60008;50.826;6.896;2023-08-12T07:46:54;100998.44;;;22.87;100.00
72959;BME280;60008;50.826;6.896;2023-08-12T07:49:47;101003.72;;;23.17;100.00
72959;BME280;60008;50.826;6.896;2023-08-12T07:52:32;101014.91;;;22.85;100.00
72959;BME280;60008;50.826;6.896;2023-08-12T07:55:23;101021.53;;;22.60;100.00
72959;BME280;60008;50.826;6.896;2023-08-12T07:58:11;101019.03;;;22.05;100.00
72959;BME280;60008;50.826;6.896;2023-08-12T08:01:02;101020.25;;;22.21;100.00
72959;BME280;60008;50.826;6.896;2023-08-12T08:03:55;101020.06;;;22.04;100.00
72959;BME280;60008;50.826;6.896;2023-08-12T08:06:53;101007.59;;;22.21;100.00
72959;BME280;60008;50.826;6.896;2023-08-12T08:09:45;100986.16;;;22.38;100.00
72959;BME280;60008;50.826;6.896;2023-08-12T08:12:30;100984.94;;;22.64;100.00
72959;BME280;60008;50.826;6.896;2023-08-12T08:15:22;100980.03;;;22.42;100.00
72959;BME280;60008;50.826;6.896;2023-08-12T08:18:08;100958.81;;;22.58;100.00
72959;BME280;60008;50.826;6.896;2023-08-12T08:20:59;100976.88;;;22.45;100.00
72959;BME280;60008;50.826;6.896;2023-08-12T08:23:49;100983.34;;;22.44;100.00
72959;BME280;60008;50.826;6.896;2023-08-12T08:26:42;100984.53;;;22.60;100.00
72959;BME280;60008;50.826;6.896;2023-08-12T08:29:27;100997.28;;;22.94;100.00
72959;BME280;60008;50.826;6.896;2023-08-12T08:32:18;100998.44;;;22.64;100.00
72959;BME280;60008;50.826;6.896;2023-08-12T08:35:04;101000.44;;;23.03;100.00
72959;BME280;60008;50.826;6.896;2023-08-12T08:37:56;101000.34;;;22.98;100.00
72959;BME280;60008;50.826;6.896;2023-08-12T08:40:50;101005.97;;;23.20;100.00
72959;BME280;60008;50.826;6.896;2023-08-12T08:43:43;100986.75;;;24.24;100.00
72959;BME280;60008;50.826;6.896;2023-08-12T08:46:31;100995.59;;;23.91;100.00
72959;BME280;60008;50.826;6.896;2023-08-12T08:49:23;100975.00;;;25.02;100.00
72959;BME280;60008;50.826;6.896;2023-08-12T08:52:08;100989.56;;;24.46;100.00
72959;BME280;60008;50.826;6.896;2023-08-12T08:55:00;101002.44;;;23.82;100.00
72959;BME280;60008;50.826;6.896;2023-08-12T08:57:52;101004.03;;;23.66;100.00
72959;BME280;60008;50.826;6.896;2023-08-12T09:00:45;101001.66;;;23.70;100.00
72959;BME280;60008;50.826;6.896;2023-08-12T09:03:38;101004.19;;;23.48;100.00
72959;BME280;60008;50.826;6.896;2023-08-12T09:06:36;101024.06;;;23.31;100.00
72959;BME280;60008;50.826;6.896;2023-08-12T09:09:27;101020.94;;;23.74;100.00
72959;BME280;60008;50.826;6.896;2023-08-12T09:12:14;100986.75;;;24.91;100.00
72959;BME280;60008;50.826;6.896;2023-08-12T09:15:07;100963.44;;;25.50;100.00
72959;BME280;60008;50.826;6.896;2023-08-12T09:17:58;100984.38;;;24.94;100.00
72959;BME280;60008;50.826;6.896;2023-08-12T09:20:44;100977.81;;;25.72;100.00
72959;BME280;60008;50.826;6.896;2023-08-12T09:23:37;100973.03;;;26.32;100.00
72959;BME280;60008;50.826;6.896;2023-08-12T09:26:29;100954.44;;;26.19;100.00
72959;BME280;60008;50.826;6.896;2023-08-12T09:29:14;100957.41;;;25.91;100.00
72959;BME280;60008;50.826;6.896;2023-08-12T09:32:11;100945.25;;;25.72;100.00
72959;BME280;60008;50.826;6.896;2023-08-12T09:35:04;100960.66;;;25.66;100.00
72959;BME280;60008;50.826;6.896;2023-08-12T09:37:50;100953.56;;;26.45;100.00
72959;BME280;60008;50.826;6.896;2023-08-12T09:40:43;100947.06;;;28.22;100.00
72959;BME280;60008;50.826;6.896;2023-08-12T09:43:40;100947.44;;;26.60;100.00
72959;BME280;60008;50.826;6.896;2023-08-12T09:46:26;100959.75;;;26.09;100.00
72959;BME280;60008;50.826;6.896;2023-08-12T09:49:19;100955.63;;;26.65;100.00
72959;BME280;60008;50.826;6.896;2023-08-12T09:52:11;100966.38;;;25.05;100.00
72959;BME280;60008;50.826;6.896;2023-08-12T09:54:56;100976.59;;;24.81;100.00
72959;BME280;60008;50.826;6.896;2023-08-12T09:57:53;101000.94;;;24.03;100.00
72959;BME280;60008;50.826;6.896;2023-08-12T10:00:39;100999.94;;;23.64;100.00
72959;BME280;60008;50.826;6.896;2023-08-12T10:03:33;100996.31;;;23.47;100.00
72959;BME280;60008;50.826;6.896;2023-08-12T10:06:38;100995.47;;;23.35;100.00
72959;BME280;60008;50.826;6.896;2023-08-12T10:09:23;101007.38;;;23.10;100.00
72959;BME280;60008;50.826;6.896;2023-08-12T10:12:15;101015.50;;;22.87;100.00
72959;BME280;60008;50.826;6.896;2023-08-12T10:15:09;101016.78;;;23.08;100.00
72959;BME280;60008;50.826;6.896;2023-08-12T10:17:55;101001.16;;;23.45;100.00
72959;BME280;60008;50.826;6.896;2023-08-12T10:20:47;100993.19;;;23.95;100.00
72959;BME280;60008;50.826;6.896;2023-08-12T10:23:33;100971.03;;;24.76;100.00
72959;BME280;60008;50.826;6.896;2023-08-12T10:26:25;100956.19;;;25.17;100.00
72959;BME280;60008;50.826;6.896;2023-08-12T10:29:10;100961.22;;;24.87;100.00
72959;BME280;60008;50.826;6.896;2023-08-12T10:32:03;100972.47;;;24.62;100.00
72959;BME280;60008;50.826;6.896;2023-08-12T10:34:54;100955.88;;;24.58;100.00
72959;BME280;60008;50.826;6.896;2023-08-12T10:37:50;100960.13;;;25.04;100.00
72959;BME280;60008;50.826;6.896;2023-08-12T10:40:42;100942.41;;;25.18;100.00
72959;BME280;60008;50.826;6.896;2023-08-12T10:43:27;100948.56;;;24.75;100.00
72959;BME280;60008;50.826;6.896;2023-08-12T10:46:37;100947.50;;;24.43;100.00
72959;BME280;60008;50.826;6.896;2023-08-12T10:49:22;100948.31;;;24.44;100.00
72959;BME280;60008;50.826;6.896;2023-08-12T10:52:31;100949.63;;;24.24;100.00
72959;BME280;60008;50.826;6.896;2023-08-12T10:55:25;100959.13;;;24.27;100.00
72959;BME280;60008;50.826;6.896;2023-08-12T10:58:40;100950.41;;;23.52;100.00
72959;BME280;60008;50.826;6.896;2023-08-12T11:01:31;100966.53;;;23.47;100.00
72959;BME280;60008;50.826;6.896;2023-08-12T11:04:24;100962.22;;;23.34;100.00
72959;BME280;60008;50.826;6.896;2023-08-12T11:07:34;100951.50;;;23.28;100.00
72959;BME280;60008;50.826;6.896;2023-08-12T11:10:33;100944.66;;;23.37;100.00
72959;BME280;60008;50.826;6.896;2023-08-12T11:13:29;100932.69;;;23.44;100.00
72959;BME280;60008;50.826;6.896;2023-08-12T11:16:14;100923.72;;;23.44;100.00
72959;BME280;60008;50.826;6.896;2023-08-12T11:19:05;100918.91;;;23.74;100.00
72959;BME280;60008;50.826;6.896;2023-08-12T11:21:52;100920.78;;;23.74;100.00
72959;BME280;60008;50.826;6.896;2023-08-12T11:24:43;100928.34;;;23.72;100.00
72959;BME280;60008;50.826;6.896;2023-08-12T11:27:36;100926.16;;;23.85;100.00
72959;BME280;60008;50.826;6.896;2023-08-12T11:30:27;100918.47;;;23.94;100.00
72959;BME280;60008;50.826;6.896;2023-08-12T11:33:16;100911.13;;;24.39;100.00
72959;BME280;60008;50.826;6.896;2023-08-12T11:36:10;100901.09;;;24.23;100.00
72959;BME280;60008;50.826;6.896;2023-08-12T11:38:56;100902.56;;;24.14;100.00
72959;BME280;60008;50.826;6.896;2023-08-12T11:41:48;100911.34;;;23.76;100.00
72959;BME280;60008;50.826;6.896;2023-08-12T11:44:33;100906.59;;;24.28;100.00
72959;BME280;60008;50.826;6.896;2023-08-12T11:47:24;100895.28;;;25.24;100.00
72959;BME280;60008;50.826;6.896;2023-08-12T11:50:15;100892.34;;;24.88;100.00
72959;BME280;60008;50.826;6.896;2023-08-12T11:53:06;100904.72;;;24.28;100.00
72959;BME280;60008;50.826;6.896;2023-08-12T11:55:58;100896.34;;;24.30;100.00
72959;BME280;60008;50.826;6.896;2023-08-12T11:58:49;100896.91;;;24.49;100.00
72959;BME280;60008;50.826;6.896;2023-08-12T12:01:46;100894.25;;;25.09;100.00
72959;BME280;60008;50.826;6.896;2023-08-12T12:04:41;100884.72;;;25.28;100.00
72959;BME280;60008;50.826;6.896;2023-08-12T12:07:39;100880.53;;;25.42;100.00
72959;BME280;60008;50.826;6.896;2023-08-12T12:10:32;100884.13;;;25.69;100.00
72959;BME280;60008;50.826;6.896;2023-08-12T12:13:24;100886.09;;;25.30;100.00
72959;BME280;60008;50.826;6.896;2023-08-12T12:16:10;100878.22;;;25.29;100.00
72959;BME280;60008;50.826;6.896;2023-08-12T12:19:03;100877.84;;;25.20;100.00
72959;BME280;60008;50.826;6.896;2023-08-12T12:21:57;100892.91;;;25.33;100.00
72959;BME280;60008;50.826;6.896;2023-08-12T12:24:48;100887.81;;;24.93;100.00
72959;BME280;60008;50.826;6.896;2023-08-12T12:27:34;100886.63;;;25.06;100.00
72959;BME280;60008;50.826;6.896;2023-08-12T12:30:26;100889.19;;;25.39;100.00
72959;BME280;60008;50.826;6.896;2023-08-12T12:33:11;100890.47;;;25.31;100.00
72959;BME280;60008;50.826;6.896;2023-08-12T12:36:02;100906.31;;;25.18;100.00
72959;BME280;60008;50.826;6.896;2023-08-12T12:38:49;100900.09;;;25.22;100.00
72959;BME280;60008;50.826;6.896;2023-08-12T12:41:41;100910.50;;;24.87;100.00
72959;BME280;60008;50.826;6.896;2023-08-12T12:44:26;100911.81;;;24.68;100.00
72959;BME280;60008;50.826;6.896;2023-08-12T12:47:18;100911.44;;;24.59;100.00
72959;BME280;60008;50.826;6.896;2023-08-12T12:50:04;100911.09;;;24.72;100.00
72959;BME280;60008;50.826;6.896;2023-08-12T12:52:55;100909.16;;;25.50;100.00
72959;BME280;60008;50.826;6.896;2023-08-12T12:55:40;100903.34;;;25.63;100.00
72959;BME280;60008;50.826;6.896;2023-08-12T12:58:34;100902.63;;;25.72;100.00
72959;BME280;60008;50.826;6.896;2023-08-12T13:01:19;100903.53;;;25.83;100.00
72959;BME280;60008;50.826;6.896;2023-08-12T13:04:10;100895.44;;;25.61;100.00
72959;BME280;60008;50.826;6.896;2023-08-12T13:07:02;100900.91;;;25.66;100.00
72959;BME280;60008;50.826;6.896;2023-08-12T13:09:54;100912.16;;;25.31;100.00
72959;BME280;60008;50.826;6.896;2023-08-12T13:12:39;100919.88;;;25.61;100.00
72959;BME280;60008;50.826;6.896;2023-08-12T13:15:30;100930.84;;;25.28;100.00
72959;BME280;60008;50.826;6.896;2023-08-12T13:18:22;100932.22;;;24.54;100.00
72959;BME280;60008;50.826;6.896;2023-08-12T13:21:14;100948.66;;;24.47;100.00
72959;BME280;60008;50.826;6.896;2023-08-12T13:24:05;100948.16;;;24.83;100.00
72959;BME280;60008;50.826;6.896;2023-08-12T13:26:51;100954.84;;;24.98;100.00
72959;BME280;60008;50.826;6.896;2023-08-12T13:29:44;100936.19;;;25.01;100.00
72959;BME280;60008;50.826;6.896;2023-08-12T13:32:29;100962.75;;;24.49;100.00
72959;BME280;60008;50.826;6.896;2023-08-12T13:35:21;100966.31;;;24.83;100.00
72959;BME280;60008;50.826;6.896;2023-08-12T13:38:06;100966.78;;;24.47;100.00
72959;BME280;60008;50.826;6.896;2023-08-12T13:40:58;100990.66;;;24.16;100.00
72959;BME280;60008;50.826;6.896;2023-08-12T13:43:42;100987.34;;;23.86;100.00
72959;BME280;60008;50.826;6.896;2023-08-12T13:46:35;100978.88;;;24.39;100.00
72959;BME280;60008;50.826;6.896;2023-08-12T13:49:20;100984.03;;;24.24;100.00
72959;BME280;60008;50.826;6.896;2023-08-12T13:52:11;100974.03;;;24.58;100.00
72959;BME280;60008;50.826;6.896;2023-08-12T13:55:00;100978.03;;;24.39;100.00
72959;BME280;60008;50.826;6.896;2023-08-12T13:57:51;100973.00;;;24.14;100.00
72959;BME280;60008;50.826;6.896;2023-08-12T14:00:43;100967.78;;;24.24;100.00
72959;BME280;60008;50.826;6.896;2023-08-12T14:03:28;100957.34;;;24.49;100.00
72959;BME280;60008;50.826;6.896;2023-08-12T14:06:28;100960.88;;;24.66;100.00
72959;BME280;60008;50.826;6.896;2023-08-12T14:09:19;100966.94;;;24.73;100.00
72959;BME280;60008;50.826;6.896;2023-08-12T14:12:11;100951.75;;;24.72;100.00
72959;BME280;60008;50.826;6.896;2023-08-12T14:14:57;100957.00;;;24.62;100.00
72959;BME280;60008;50.826;6.896;2023-08-12T14:17:48;100959.00;;;24.50;100.00
72959;BME280;60008;50.826;6.896;2023-08-12T14:20:33;100955.19;;;24.68;100.00
72959;BME280;60008;50.826;6.896;2023-08-12T14:23:25;100964.84;;;24.59;100.00
72959;BME280;60008;50.826;6.896;2023-08-12T14:26:10;100950.78;;;24.62;100.00
72959;BME280;60008;50.826;6.896;2023-08-12T14:29:01;100950.94;;;24.72;100.00
72959;BME280;60008;50.826;6.896;2023-08-12T14:31:53;100956.69;;;24.75;100.00
72959;BME280;60008;50.826;6.896;2023-08-12T14:34:44;100962.78;;;24.82;100.00
72959;BME280;60008;50.826;6.896;2023-08-12T14:37:32;100962.84;;;24.54;100.00
72959;BME280;60008;50.826;6.896;2023-08-12T14:40:24;100963.75;;;24.60;100.00